Cataumet, Massachusetts
Current Conditions -  °F | °C
As of 1:15 PM on Thursday 23 Oct 2014 (Local Time) from KFMH Reporting Station
Broken Clouds Broken Clouds  
Wind Chill: 64°   Ceiling: 9500
Heat Index: 64°   Visibility: 10mi
Dew Point: 59°   Wind: 14mph
Humidity: 83%   Direction: 30°NNE
Pressure: 29.51"   Gusts: NA
Location:  41.67°N, 70.62°W
Report Text: KFMH 231715Z AUTO 03012KT 10SM BKN095 18/15 A2951 RMK AO2
Loading
Personal Weather Stations






























Interactive Weather Map
Tropical Storm Tracking
New forecast layout! Learn more

10-Day Weather Forecast

Advertisements
Track Severe Weather on mobile